Time;durP1;ratioP1;P1;durP2;ratioP2;P2;SDS_P1;SDS_P2;PMS_P1;PMS_P2;Temp;Humidity;BMP_temperature;BMP_pressure;BME280_temperature;BME280_humidity;BME280_pressure;Samples;Min_cycle;Max_cycle;Signal;HPM_P1;HPM_P2
2023/03/08 00:00:09;;;;;;;28.27;18.70;;;3.10;99.90;;;;;;5059580;28;20296;-64
2023/03/08 00:02:37;;;;;;;32.35;20.23;;;3.00;99.90;;;;;;5059181;28;20423;-64
2023/03/08 00:05:04;;;;;;;30.70;19.23;;;3.10;99.90;;;;;;5058361;28;20037;-64
2023/03/08 00:07:29;;;;;;;31.23;17.80;;;3.20;99.90;;;;;;5058194;28;20036;-64
2023/03/08 00:09:55;;;;;;;32.45;18.80;;;3.10;99.90;;;;;;5059039;28;20037;-64
2023/03/08 00:12:21;;;;;;;29.67;17.95;;;3.20;99.90;;;;;;5058072;28;20029;-64
2023/03/08 00:14:48;;;;;;;27.90;18.77;;;3.20;99.90;;;;;;5058873;28;20044;-64
2023/03/08 00:17:14;;;;;;;28.63;18.40;;;3.10;99.90;;;;;;5058812;28;20029;-64
2023/03/08 00:19:40;;;;;;;30.08;18.52;;;3.10;99.90;;;;;;5058814;28;20029;-64
2023/03/08 00:22:06;;;;;;;30.63;18.35;;;3.20;99.90;;;;;;5058069;28;20028;-64
2023/03/08 00:24:32;;;;;;;31.38;18.73;;;3.30;99.90;;;;;;5058002;28;20037;-65
2023/03/08 00:26:58;;;;;;;29.50;18.92;;;3.30;99.90;;;;;;5041350;28;20353;-64
2023/03/08 00:29:24;;;;;;;28.48;17.63;;;3.20;99.90;;;;;;5057926;28;20057;-64
2023/03/08 00:31:50;;;;;;;30.02;18.08;;;3.20;99.90;;;;;;5057877;28;20033;-64
2023/03/08 00:34:16;;;;;;;28.13;17.75;;;3.20;99.90;;;;;;5058535;28;20040;-64
2023/03/08 00:36:42;;;;;;;27.77;18.13;;;3.20;99.90;;;;;;5057696;28;20450;-65
2023/03/08 00:39:13;;;;;;;29.25;18.23;;;3.20;99.90;;;;;;5058693;28;20029;-64
2023/03/08 00:41:39;;;;;;;29.80;19.05;;;3.30;99.90;;;;;;5058392;28;20090;-64
2023/03/08 00:44:05;;;;;;;30.48;18.35;;;3.30;99.90;;;;;;5041653;28;20036;-63
2023/03/08 00:46:31;;;;;;;28.85;18.15;;;3.30;99.90;;;;;;5058378;28;20025;-63
2023/03/08 00:48:57;;;;;;;29.38;18.30;;;3.30;99.90;;;;;;5057482;28;20116;-64
2023/03/08 00:51:23;;;;;;;30.00;18.60;;;3.40;99.90;;;;;;5057458;28;20029;-64
2023/03/08 00:53:49;;;;;;;29.58;18.98;;;3.50;99.90;;;;;;5058117;28;20179;-63
2023/03/08 00:56:15;;;;;;;28.35;17.77;;;3.50;99.90;;;;;;5057173;28;20170;-63
2023/03/08 00:58:41;;;;;;;28.13;17.23;;;3.60;99.90;;;;;;5057268;28;20434;-63
2023/03/08 01:01:10;;;;;;;28.20;17.67;;;3.60;99.90;;;;;;5040608;28;20029;-63
2023/03/08 01:03:36;;;;;;;28.92;17.83;;;3.50;99.90;;;;;;5057295;28;20036;-63
2023/03/08 01:06:08;;;;;;;28.67;17.10;;;3.50;99.90;;;;;;5057941;28;20044;-63
2023/03/08 01:08:34;;;;;;;20.45;12.98;;;3.50;99.90;;;;;;5058515;28;20332;-63
2023/03/08 01:11:01;;;;;;;30.05;18.52;;;3.60;99.90;;;;;;5057694;28;20415;-64
2023/03/08 01:13:30;;;;;;;28.42;18.13;;;3.80;99.90;;;;;;5057022;28;20029;-64
2023/03/08 01:15:56;;;;;;;29.17;18.73;;;3.90;99.90;;;;;;5057703;28;20041;-65
2023/03/08 01:18:22;;;;;;;29.88;18.88;;;3.90;99.90;;;;;;5057677;28;20300;-62
2023/03/08 01:21:00;;;;;;;31.15;19.02;;;4.00;99.90;;;;;;5056795;28;20120;-63
2023/03/08 01:23:25;;;;;;;33.63;19.67;;;4.20;99.90;;;;;;5058155;28;20064;-63
2023/03/08 01:25:59;;;;;;;34.00;19.85;;;4.20;99.90;;;;;;5057694;28;20057;-63
2023/03/08 01:28:25;;;;;;;31.45;19.83;;;4.20;99.90;;;;;;5057482;28;20037;-63
2023/03/08 01:30:51;;;;;;;30.00;19.45;;;4.30;99.90;;;;;;5057395;28;20032;-64
2023/03/08 01:33:17;;;;;;;29.90;18.45;;;4.30;99.90;;;;;;5057430;28;20292;-63
2023/03/08 01:35:43;;;;;;;29.67;18.48;;;4.20;99.90;;;;;;5057324;28;20124;-63
2023/03/08 01:38:09;;;;;;;29.38;17.98;;;4.20;99.90;;;;;;5057294;28;20039;-63
2023/03/08 01:40:34;;;;;;;28.17;18.00;;;4.20;99.90;;;;;;5057285;28;20079;-64
2023/03/08 01:43:20;;;;;;;27.95;18.00;;;4.20;99.90;;;;;;5057251;28;20025;-63
2023/03/08 01:46:01;;;;;;;28.00;17.75;;;4.30;99.90;;;;;;5057356;28;20025;-64
2023/03/08 01:48:32;;;;;;;28.55;17.75;;;4.30;99.90;;;;;;5056439;28;20102;-63
2023/03/08 01:51:04;;;;;;;30.42;18.67;;;4.30;99.90;;;;;;5056397;28;20021;-63
2023/03/08 01:53:32;;;;;;;30.35;18.77;;;4.30;99.90;;;;;;5056396;28;20025;-63
2023/03/08 01:55:58;;;;;;;31.42;18.92;;;4.30;99.90;;;;;;5056066;28;20102;-63
2023/03/08 01:58:25;;;;;;;27.98;18.02;;;4.30;99.90;;;;;;5055742;28;20116;-63
2023/03/08 02:00:51;;;;;;;30.33;19.65;;;4.40;99.90;;;;;;5057040;28;20316;-63
2023/03/08 02:03:17;;;;;;;31.42;18.73;;;4.30;99.90;;;;;;5056255;28;20312;-63
2023/03/08 02:05:43;;;;;;;31.92;20.00;;;4.30;99.90;;;;;;5056193;28;20029;-62
2023/03/08 02:08:14;;;;;;;32.40;19.42;;;4.30;99.90;;;;;;5056195;28;20021;-63
2023/03/08 02:10:42;;;;;;;34.53;20.15;;;4.20;99.90;;;;;;5056229;28;20040;-64
2023/03/08 02:13:09;;;;;;;32.72;20.67;;;4.20;99.90;;;;;;5056809;28;20381;-63
2023/03/08 02:15:39;;;;;;;35.08;20.55;;;4.30;99.90;;;;;;5040069;28;20083;-63
2023/03/08 02:18:04;;;;;;;36.10;21.45;;;4.30;99.90;;;;;;5039451;28;20121;-63
2023/03/08 02:20:34;;;;;;;44.85;24.75;;;4.30;99.90;;;;;;5056369;28;20108;-64
2023/03/08 02:23:13;;;;;;;49.10;26.48;;;4.20;99.90;;;;;;5057108;28;20177;-65
2023/03/08 02:25:48;;;;;;;46.70;26.15;;;4.20;99.90;;;;;;5056441;28;20419;-64
2023/03/08 02:28:14;;;;;;;46.42;26.55;;;4.20;99.90;;;;;;5056776;28;20021;-64
2023/03/08 02:30:40;;;;;;;50.60;28.38;;;4.20;99.90;;;;;;5056809;28;20041;-64
2023/03/08 02:33:06;;;;;;;51.55;27.45;;;4.20;99.90;;;;;;5056707;28;20300;-64
2023/03/08 02:35:32;;;;;;;48.10;27.40;;;4.30;99.90;;;;;;5056681;28;20079;-64
2023/03/08 02:37:58;;;;;;;49.75;28.17;;;4.40;99.90;;;;;;5055814;28;20045;-64
2023/03/08 02:40:24;;;;;;;49.33;27.95;;;4.30;99.90;;;;;;5056832;28;20037;-64
2023/03/08 02:42:50;;;;;;;45.33;26.33;;;4.20;99.90;;;;;;5055877;28;20099;-64
2023/03/08 02:45:16;;;;;;;46.97;26.15;;;4.20;99.90;;;;;;5056879;28;20452;-64
2023/03/08 02:47:42;;;;;;;42.15;26.00;;;4.10;99.90;;;;;;5056765;28;20028;-64
2023/03/08 02:50:09;;;;;;;40.90;24.40;;;4.00;99.90;;;;;;5056510;28;20025;-64
2023/03/08 02:52:34;;;;;;;41.05;24.02;;;4.10;99.90;;;;;;5056760;28;20041;-64
2023/03/08 02:55:00;;;;;;;40.65;24.27;;;4.10;99.90;;;;;;5056661;28;20457;-64
2023/03/08 02:57:26;;;;;;;41.40;24.85;;;4.10;99.90;;;;;;5039236;28;20037;-64
2023/03/08 02:59:54;;;;;;;43.60;25.17;;;4.20;99.90;;;;;;5055828;28;20062;-64
2023/03/08 03:02:19;;;;;;;41.55;24.00;;;4.20;99.90;;;;;;5055604;28;20021;-64
2023/03/08 03:04:45;;;;;;;42.50;24.85;;;4.30;99.90;;;;;;5055607;28;20420;-64
2023/03/08 03:07:11;;;;;;;40.42;23.52;;;4.30;99.90;;;;;;5056386;28;20033;-64
2023/03/08 03:09:37;;;;;;;42.92;25.15;;;4.30;99.90;;;;;;5039504;28;20044;-65
2023/03/08 03:12:03;;;;;;;41.58;24.60;;;4.40;99.90;;;;;;5059323;28;20478;-64
2023/03/08 03:14:32;;;;;;;40.92;24.15;;;4.30;99.90;;;;;;5043043;28;20052;-64
2023/03/08 03:16:59;;;;;;;40.13;24.58;;;4.30;99.90;;;;;;5042699;28;20082;-64
2023/03/08 03:19:25;;;;;;;40.08;24.48;;;4.10;99.90;;;;;;5042707;28;20033;-64
2023/03/08 03:21:51;;;;;;;41.17;24.20;;;4.10;99.90;;;;;;5059866;28;20328;-64
2023/03/08 03:24:17;;;;;;;38.53;23.35;;;4.00;99.90;;;;;;5060151;28;20059;-64
2023/03/08 03:26:52;;;;;;;41.75;24.17;;;3.90;99.90;;;;;;5059432;28;20088;-64
2023/03/08 03:29:19;;;;;;;40.40;23.20;;;4.10;99.90;;;;;;5058998;28;20065;-64
2023/03/08 03:31:49;;;;;;;36.75;22.27;;;4.20;99.90;;;;;;5059181;28;20033;-64
2023/03/08 03:34:16;;;;;;;35.20;21.58;;;4.10;99.90;;;;;;5059679;28;20060;-64
2023/03/08 03:36:43;;;;;;;37.78;21.65;;;4.00;99.90;;;;;;5059481;28;20028;-65
2023/03/08 03:39:09;;;;;;;34.13;20.48;;;3.90;99.90;;;;;;5042236;28;20305;-64
2023/03/08 03:41:37;;;;;;;35.28;20.95;;;3.90;99.90;;;;;;5058776;28;20391;-64
2023/03/08 03:44:08;;;;;;;34.95;20.52;;;3.90;99.90;;;;;;5043700;28;20029;-64
2023/03/08 03:46:34;;;;;;;38.45;21.75;;;3.90;99.90;;;;;;5042215;28;20033;-64
2023/03/08 03:49:01;;;;;;;39.25;21.40;;;3.80;99.90;;;;;;5058601;28;20036;-64
2023/03/08 03:51:32;;;;;;;34.05;20.08;;;3.80;99.90;;;;;;5058610;28;20309;-64
2023/03/08 03:54:27;;;;;;;33.47;19.50;;;3.80;99.90;;;;;;5062560;28;20045;-64
2023/03/08 03:56:57;;;;;;;36.50;20.02;;;3.60;99.90;;;;;;5059235;28;20072;-65
2023/03/08 03:59:25;;;;;;;34.00;19.83;;;3.60;99.90;;;;;;5058392;28;20036;-64
2023/03/08 04:01:51;;;;;;;30.63;18.42;;;3.50;99.90;;;;;;5041814;28;20107;-64
2023/03/08 04:04:22;;;;;;;31.30;18.38;;;3.40;99.90;;;;;;5026995;28;20090;-63
2023/03/08 04:06:50;;;;;;;33.78;19.63;;;3.40;99.90;;;;;;5058863;28;20110;-63
2023/03/08 04:09:19;;;;;;;32.38;18.63;;;3.50;99.90;;;;;;5042405;28;20033;-63
2023/03/08 04:11:52;;;;;;;33.00;18.42;;;3.60;99.90;;;;;;5058213;28;20033;-64
2023/03/08 04:14:20;;;;;;;32.30;19.95;;;3.60;99.90;;;;;;5041870;28;20056;-63
2023/03/08 04:16:47;;;;;;;34.00;19.92;;;3.70;99.90;;;;;;5041584;28;20116;-63
2023/03/08 04:19:24;;;;;;;34.60;19.17;;;3.60;99.90;;;;;;5058098;28;20408;-63
2023/03/08 04:21:52;;;;;;;32.03;18.63;;;3.50;99.90;;;;;;5041526;28;20082;-63
2023/03/08 04:24:22;;;;;;;33.42;19.52;;;3.40;99.90;;;;;;5057951;28;20041;-63
2023/03/08 04:26:51;;;;;;;29.58;17.15;;;3.30;99.90;;;;;;5057917;28;20079;-65
2023/03/08 04:29:19;;;;;;;32.05;18.63;;;3.30;99.90;;;;;;5057987;28;20303;-63
2023/03/08 04:31:45;;;;;;;29.80;18.02;;;3.20;99.90;;;;;;5058601;28;20052;-63
2023/03/08 04:34:14;;;;;;;31.92;18.50;;;3.20;99.90;;;;;;5058792;28;20355;-63
2023/03/08 04:36:40;;;;;;;26.17;16.55;;;3.20;99.90;;;;;;5041249;28;20036;-63
2023/03/08 04:39:07;;;;;;;28.98;16.88;;;3.20;99.90;;;;;;5057636;28;20041;-63
2023/03/08 04:41:34;;;;;;;27.90;16.80;;;3.30;99.90;;;;;;5041220;28;20037;-64
2023/03/08 04:44:11;;;;;;;27.90;16.38;;;3.20;99.90;;;;;;5057686;28;20040;-63
2023/03/08 04:46:45;;;;;;;26.52;15.82;;;3.10;99.90;;;;;;5058325;28;20040;-63
2023/03/08 04:49:17;;;;;;;25.35;14.88;;;3.00;99.90;;;;;;5057847;28;20308;-63
2023/03/08 04:51:47;;;;;;;27.10;15.05;;;3.00;99.90;;;;;;5057470;28;20312;-63
2023/03/08 04:54:13;;;;;;;27.10;14.23;;;3.00;99.90;;;;;;5058030;28;20037;-63
2023/03/08 04:56:44;;;;;;;25.25;14.13;;;3.00;99.90;;;;;;5057309;28;20048;-63
2023/03/08 04:59:12;;;;;;;21.92;12.65;;;3.10;99.90;;;;;;5057300;28;20032;-63
2023/03/08 05:01:38;;;;;;;19.77;12.32;;;3.00;99.90;;;;;;5040641;28;20277;-63
2023/03/08 05:04:05;;;;;;;20.13;11.30;;;3.10;99.90;;;;;;5057134;28;20400;-63
2023/03/08 05:06:36;;;;;;;17.90;10.25;;;3.10;99.90;;;;;;5057246;28;20106;-63
2023/03/08 05:09:02;;;;;;;18.65;10.30;;;2.90;99.90;;;;;;5058213;28;20301;-63
2023/03/08 05:11:29;;;;;;;17.42;9.75;;;2.90;99.90;;;;;;5057019;28;20392;-63
2023/03/08 05:13:57;;;;;;;17.67;10.13;;;2.90;99.90;;;;;;5057015;28;20025;-63
2023/03/08 05:16:25;;;;;;;15.07;9.45;;;2.80;99.90;;;;;;5057644;28;20029;-63
2023/03/08 05:18:51;;;;;;;17.20;10.23;;;2.70;99.90;;;;;;5056829;28;20024;-63
2023/03/08 05:21:21;;;;;;;13.98;9.00;;;2.70;99.90;;;;;;5056794;28;20025;-63
2023/03/08 05:23:51;;;;;;;17.70;9.27;;;2.70;99.90;;;;;;5025090;28;20031;-63
2023/03/08 05:26:20;;;;;;;13.40;8.57;;;2.50;99.90;;;;;;5056673;28;20128;-63
2023/03/08 05:28:47;;;;;;;14.07;8.35;;;2.50;99.90;;;;;;5056709;28;20037;-63
2023/03/08 05:31:17;;;;;;;15.18;8.55;;;2.40;99.90;;;;;;5056656;28;20044;-63
2023/03/08 05:33:45;;;;;;;13.88;8.90;;;2.40;99.90;;;;;;5055716;28;20452;-63
2023/03/08 05:36:15;;;;;;;15.27;9.35;;;2.40;99.90;;;;;;5056537;28;20036;-63
2023/03/08 05:38:43;;;;;;;15.88;9.85;;;2.40;99.90;;;;;;5040141;28;20415;-64
2023/03/08 05:41:12;;;;;;;19.45;10.27;;;2.40;99.90;;;;;;5057313;28;20036;-62
2023/03/08 05:43:39;;;;;;;17.02;10.40;;;2.30;99.90;;;;;;5056424;28;20021;-63
2023/03/08 05:46:13;;;;;;;18.48;10.73;;;2.40;99.90;;;;;;5057471;28;20380;-63
2023/03/08 05:48:39;;;;;;;17.45;10.10;;;2.50;99.90;;;;;;5057104;28;20098;-64
2023/03/08 05:51:08;;;;;;;14.93;9.60;;;2.60;99.90;;;;;;5056302;28;20396;-64
2023/03/08 05:53:34;;;;;;;14.65;9.32;;;2.60;99.90;;;;;;5057385;28;20059;-63
2023/03/08 05:56:11;;;;;;;15.52;9.95;;;2.50;99.90;;;;;;5056070;28;20053;-64
2023/03/08 05:58:42;;;;;;;13.02;9.32;;;2.40;99.90;;;;;;5056310;28;20040;-64
2023/03/08 06:01:22;;;;;;;13.07;8.88;;;2.40;99.90;;;;;;5057170;28;20291;-63
2023/03/08 06:03:52;;;;;;;13.85;7.35;;;2.50;99.90;;;;;;5056168;28;20036;-63
2023/03/08 06:06:21;;;;;;;14.68;8.93;;;2.60;99.90;;;;;;5056920;28;20034;-64
2023/03/08 06:08:48;;;;;;;11.93;8.32;;;2.60;99.90;;;;;;5056130;28;20051;-64
2023/03/08 06:11:14;;;;;;;11.90;7.50;;;2.50;99.90;;;;;;5056053;28;20060;-63
2023/03/08 06:13:43;;;;;;;10.60;7.03;;;2.30;99.90;;;;;;5055876;28;20053;-63
2023/03/08 06:16:09;;;;;;;8.85;6.20;;;2.20;99.90;;;;;;5056037;28;20024;-62
2023/03/08 06:18:37;;;;;;;6.88;4.72;;;2.00;99.90;;;;;;5056101;28;20036;-62
2023/03/08 06:21:08;;;;;;;6.80;4.78;;;2.10;99.90;;;;;;5056097;28;20021;-62
2023/03/08 06:23:36;;;;;;;6.88;4.68;;;2.10;99.90;;;;;;5056038;28;20025;-62
2023/03/08 06:26:04;;;;;;;5.47;4.35;;;2.10;99.90;;;;;;5056775;28;20108;-62
2023/03/08 06:28:31;;;;;;;6.65;4.32;;;2.10;99.90;;;;;;5039279;28;20029;-62
2023/03/08 06:30:57;;;;;;;7.45;4.15;;;2.10;99.90;;;;;;5055691;28;20048;-62
2023/03/08 06:33:29;;;;;;;4.22;3.45;;;2.00;99.90;;;;;;5056617;28;20025;-63
2023/03/08 06:35:57;;;;;;;5.07;3.47;;;2.00;99.90;;;;;;5055750;28;20028;-63
2023/03/08 06:38:23;;;;;;;4.40;3.40;;;2.00;99.90;;;;;;5055972;28;20025;-62
2023/03/08 06:40:49;;;;;;;5.28;3.88;;;1.90;99.90;;;;;;5055798;28;20112;-62
2023/03/08 06:43:15;;;;;;;4.25;3.83;;;1.90;99.90;;;;;;5055988;28;20049;-63
2023/03/08 06:45:41;;;;;;;5.25;3.80;;;2.00;99.90;;;;;;5058169;28;20118;-62
2023/03/08 06:48:07;;;;;;;4.90;4.35;;;2.00;99.90;;;;;;5060684;28;20039;-63
2023/03/08 06:50:34;;;;;;;4.82;4.00;;;1.80;99.90;;;;;;5059804;28;20037;-61
2023/03/08 06:53:00;;;;;;;5.60;3.88;;;1.70;99.90;;;;;;5060479;28;20413;-60
2023/03/08 06:55:43;;;;;;;5.47;4.22;;;1.70;99.90;;;;;;5059806;28;20078;-64
2023/03/08 06:58:09;;;;;;;5.55;4.18;;;1.80;99.90;;;;;;5059517;28;20120;-60
2023/03/08 07:00:35;;;;;;;6.30;4.57;;;1.90;99.90;;;;;;5060428;28;20343;-62
2023/03/08 07:03:01;;;;;;;5.70;4.57;;;2.00;99.90;;;;;;5042927;28;20039;-61
2023/03/08 07:05:27;;;;;;;5.85;4.43;;;2.00;99.90;;;;;;5043022;28;20100;-61
2023/03/08 07:07:53;;;;;;;8.05;5.30;;;1.90;99.90;;;;;;5060493;28;20037;-61
2023/03/08 07:10:21;;;;;;;7.28;5.78;;;1.80;99.90;;;;;;5060237;28;20121;-63
2023/03/08 07:12:50;;;;;;;7.63;6.00;;;1.80;99.90;;;;;;5060121;28;20036;-61
2023/03/08 07:15:19;;;;;;;8.07;6.32;;;1.70;99.90;;;;;;5060044;28;20044;-61
2023/03/08 07:17:46;;;;;;;7.53;6.20;;;1.80;99.90;;;;;;5059287;28;20037;-63
2023/03/08 07:20:14;;;;;;;10.27;7.80;;;2.40;99.90;;;;;;5059938;28;20063;-61
2023/03/08 07:22:43;;;;;;;8.15;7.15;;;2.30;99.90;;;;;;5059831;28;20029;-62
2023/03/08 07:25:14;;;;;;;9.52;7.35;;;2.20;99.90;;;;;;5059851;28;20056;-62
2023/03/08 07:27:40;;;;;;;10.55;7.93;;;2.10;99.90;;;;;;5059831;28;20119;-64
2023/03/08 07:30:08;;;;;;;7.60;6.70;;;2.00;99.90;;;;;;5059799;28;20112;-63
2023/03/08 07:32:35;;;;;;;8.63;6.97;;;1.70;99.90;;;;;;5059693;28;20041;-63
2023/03/08 07:35:00;;;;;;;8.80;7.10;;;1.80;99.90;;;;;;5059548;28;20055;-63
2023/03/08 07:37:26;;;;;;;9.52;7.30;;;1.70;99.90;;;;;;5059723;28;20037;-64
2023/03/08 07:39:52;;;;;;;10.55;7.05;;;1.80;99.90;;;;;;5059297;28;20021;-63
2023/03/08 07:42:18;;;;;;;8.10;5.97;;;1.80;99.90;;;;;;5059316;28;20036;-63
2023/03/08 07:44:50;;;;;;;8.30;6.35;;;1.80;99.90;;;;;;5058429;28;20032;-61
2023/03/08 07:47:15;;;;;;;7.55;5.85;;;1.90;99.90;;;;;;5058440;28;20033;-61
2023/03/08 07:49:41;;;;;;;7.97;5.78;;;1.80;99.90;;;;;;5059319;28;20036;-61
2023/03/08 07:52:07;;;;;;;7.93;5.75;;;1.90;99.90;;;;;;5059467;28;20137;-61
2023/03/08 07:54:33;;;;;;;7.47;5.53;;;2.00;99.90;;;;;;5058278;28;20052;-62
2023/03/08 07:56:59;;;;;;;7.05;5.43;;;1.90;99.90;;;;;;5058047;28;20051;-62
2023/03/08 07:59:25;;;;;;;7.18;5.55;;;1.80;99.90;;;;;;5059522;28;20344;-62
2023/03/08 08:01:50;;;;;;;7.45;5.88;;;1.80;99.90;;;;;;5058482;28;20393;-62
2023/03/08 08:04:16;;;;;;;6.90;5.65;;;1.80;99.90;;;;;;5058995;28;20300;-62
2023/03/08 08:06:42;;;;;;;7.28;5.88;;;1.90;99.90;;;;;;5058911;28;20028;-60
2023/03/08 08:09:11;;;;;;;10.15;6.28;;;1.90;99.90;;;;;;5058916;28;20033;-60
2023/03/08 08:11:37;;;;;;;8.13;6.18;;;1.90;99.90;;;;;;5058922;28;20040;-60
2023/03/08 08:14:04;;;;;;;8.23;6.50;;;2.00;99.90;;;;;;5058870;28;20306;-62
2023/03/08 08:16:31;;;;;;;10.07;6.70;;;1.90;99.90;;;;;;5058651;28;20393;-59
2023/03/08 08:18:57;;;;;;;9.55;6.95;;;1.90;99.90;;;;;;5058586;28;20025;-60
2023/03/08 08:21:23;;;;;;;10.60;7.45;;;2.00;99.90;;;;;;5058562;28;20171;-60
2023/03/08 08:23:49;;;;;;;9.98;7.55;;;2.10;99.90;;;;;;5058575;28;20029;-59
2023/03/08 08:26:17;;;;;;;9.20;6.78;;;2.00;99.90;;;;;;5057713;28;20110;-60
2023/03/08 08:28:44;;;;;;;8.80;6.45;;;2.10;99.90;;;;;;5058453;28;20051;-60
2023/03/08 08:31:14;;;;;;;9.65;6.95;;;2.20;99.90;;;;;;5057499;28;20039;-60
2023/03/08 08:33:40;;;;;;;8.35;6.60;;;2.30;99.90;;;;;;5058241;28;20099;-60
2023/03/08 08:36:12;;;;;;;7.75;5.97;;;2.20;99.90;;;;;;5058199;28;20116;-61
2023/03/08 08:38:39;;;;;;;8.10;6.07;;;2.30;99.90;;;;;;5057739;28;20055;-61
2023/03/08 08:41:06;;;;;;;7.45;6.15;;;2.40;99.90;;;;;;5058392;28;20033;-65
2023/03/08 08:43:34;;;;;;;7.00;6.25;;;2.30;99.90;;;;;;5058435;28;20108;-63
2023/03/08 08:46:01;;;;;;;7.15;5.95;;;2.40;99.90;;;;;;5058345;28;20086;-63
2023/03/08 08:48:28;;;;;;;7.78;6.28;;;2.40;99.90;;;;;;5058274;28;20033;-63
2023/03/08 08:50:54;;;;;;;10.68;6.22;;;2.20;99.90;;;;;;5057571;28;20106;-63
2023/03/08 08:53:20;;;;;;;8.02;6.07;;;2.30;99.90;;;;;;5058138;28;20029;-63
2023/03/08 08:55:47;;;;;;;8.63;6.40;;;2.30;99.90;;;;;;5057272;28;20130;-63
2023/03/08 08:58:13;;;;;;;9.65;6.07;;;2.30;99.90;;;;;;5057932;28;20033;-62
2023/03/08 09:00:40;;;;;;;8.57;6.43;;;2.40;99.90;;;;;;5057888;28;20104;-61
2023/03/08 09:03:06;;;;;;;12.30;7.07;;;2.50;99.90;;;;;;5057948;28;20032;-61
2023/03/08 09:05:36;;;;;;;8.65;6.55;;;2.50;99.90;;;;;;5057877;28;20040;-61
2023/03/08 09:08:02;;;;;;;8.38;6.40;;;2.50;99.90;;;;;;5058015;28;20116;-61
2023/03/08 09:10:30;;;;;;;9.60;6.70;;;2.40;99.90;;;;;;5057822;28;20455;-61
2023/03/08 09:12:57;;;;;;;8.93;6.88;;;2.40;99.90;;;;;;5057844;28;20304;-60
2023/03/08 09:15:23;;;;;;;9.40;6.88;;;2.40;99.90;;;;;;5057985;28;20048;-59
2023/03/08 09:17:50;;;;;;;13.38;7.43;;;2.50;99.90;;;;;;5056954;28;20044;-60
2023/03/08 09:20:16;;;;;;;8.75;7.10;;;2.60;99.90;;;;;;5057903;28;20044;-59
2023/03/08 09:22:42;;;;;;;9.57;6.75;;;2.50;99.90;;;;;;5057628;28;20328;-58
2023/03/08 09:25:10;;;;;;;8.77;6.55;;;2.50;99.90;;;;;;5057579;28;20032;-58
2023/03/08 09:27:37;;;;;;;10.02;7.05;;;2.50;99.90;;;;;;5057607;28;20033;-58
2023/03/08 09:30:05;;;;;;;9.07;6.97;;;2.60;99.90;;;;;;5057475;28;20112;-59
2023/03/08 09:32:35;;;;;;;9.20;6.38;;;3.00;99.90;;;;;;5057741;28;20075;-58
2023/03/08 09:35:01;;;;;;;8.00;6.30;;;3.20;99.90;;;;;;5057366;28;20135;-59
2023/03/08 09:37:28;;;;;;;7.30;6.22;;;3.30;99.90;;;;;;5056529;28;20348;-60
2023/03/08 09:39:54;;;;;;;8.30;6.95;;;3.30;99.90;;;;;;5057306;28;20057;-59
2023/03/08 09:42:23;;;;;;;8.00;6.43;;;3.40;99.90;;;;;;5057515;28;20025;-59
2023/03/08 09:44:51;;;;;;;10.70;6.03;;;3.60;99.90;;;;;;5057208;28;20112;-59
2023/03/08 09:47:49;;;;;;;6.30;5.60;;;3.70;99.90;;;;;;5057218;28;20041;-58
2023/03/08 09:50:30;;;;;;;6.97;5.57;;;3.60;99.90;;;;;;5051849;28;20099;-59
2023/03/08 09:53:10;;;;;;;6.68;5.72;;;3.70;99.90;;;;;;5057228;28;20061;-59
2023/03/08 09:55:47;;;;;;;8.32;6.63;;;3.80;99.90;;;;;;5056944;28;20103;-59
2023/03/08 09:58:24;;;;;;;6.82;6.13;;;3.80;99.90;;;;;;5057019;28;20396;-59
2023/03/08 10:00:50;;;;;;;8.02;6.40;;;3.60;99.90;;;;;;5056965;28;20435;-59
2023/03/08 10:04:02;;;;;;;7.90;6.70;;;3.80;99.90;;;;;;5056381;28;20025;-60
2023/03/08 10:06:46;;;;;;;8.38;6.65;;;3.90;99.90;;;;;;5057093;28;20388;-59
2023/03/08 10:09:43;;;;;;;8.13;6.53;;;3.80;99.90;;;;;;5057335;28;20036;-60
2023/03/08 10:12:51;;;;;;;8.05;7.03;;;3.70;99.90;;;;;;5057279;28;20300;-60
2023/03/08 10:15:20;;;;;;;7.75;6.68;;;3.50;99.90;;;;;;5057088;28;20106;-61
2023/03/08 10:17:56;;;;;;;8.88;7.22;;;3.70;99.90;;;;;;5056872;28;20128;-61
2023/03/08 10:20:31;;;;;;;9.75;7.38;;;3.80;99.90;;;;;;5056240;28;20348;-60
2023/03/08 10:23:19;;;;;;;10.07;7.32;;;3.50;99.90;;;;;;5056345;28;20103;-61
2023/03/08 10:25:48;;;;;;;8.50;7.35;;;3.60;99.90;;;;;;5039337;28;20033;-60
2023/03/08 10:28:22;;;;;;;10.23;7.57;;;3.60;99.90;;;;;;5056674;28;20191;-60
2023/03/08 10:30:57;;;;;;;10.45;7.93;;;3.40;99.90;;;;;;5056271;28;20401;-60
2023/03/08 10:33:26;;;;;;;5.95;5.28;;;3.40;99.90;;;;;;5056787;28;20050;-60
2023/03/08 10:36:01;;;;;;;10.82;8.75;;;3.80;99.90;;;;;;5039251;28;20029;-60
2023/03/08 10:38:30;;;;;;;11.43;8.88;;;3.90;99.90;;;;;;5056797;28;20037;-60
2023/03/08 10:41:06;;;;;;;11.02;8.70;;;3.90;99.90;;;;;;5056752;28;20024;-60
2023/03/08 10:43:37;;;;;;;10.13;8.48;;;4.00;99.90;;;;;;5056660;28;20033;-60
2023/03/08 10:46:09;;;;;;;8.50;6.97;;;3.90;99.90;;;;;;5055835;28;20025;-60
2023/03/08 10:48:35;;;;;;;10.95;8.98;;;3.80;99.90;;;;;;5057203;28;20041;-61
2023/03/08 10:51:04;;;;;;;12.50;8.95;;;3.60;99.90;;;;;;5055768;28;20029;-61
2023/03/08 10:53:32;;;;;;;10.00;8.52;;;3.60;99.90;;;;;;5039245;28;20404;-61
2023/03/08 10:56:00;;;;;;;11.60;9.30;;;3.70;99.90;;;;;;5056216;28;20347;-61
2023/03/08 10:58:25;;;;;;;11.13;8.98;;;3.70;99.90;;;;;;5056493;28;20056;-61
2023/03/08 11:00:53;;;;;;;11.52;8.95;;;3.60;99.90;;;;;;5055892;28;20021;-63
2023/03/08 11:03:22;;;;;;;10.88;8.80;;;3.70;99.90;;;;;;5056924;28;20021;-61
2023/03/08 11:05:59;;;;;;;11.57;9.10;;;3.70;99.90;;;;;;5056471;28;20033;-63
2023/03/08 11:08:27;;;;;;;11.23;9.15;;;3.70;99.90;;;;;;5055457;28;20032;-61
2023/03/08 11:11:06;;;;;;;12.95;10.00;;;3.60;99.90;;;;;;5038869;28;20079;-61
2023/03/08 11:13:34;;;;;;;12.73;9.60;;;3.70;99.90;;;;;;5056543;28;20037;-61
2023/03/08 11:16:27;;;;;;;13.98;10.55;;;3.80;99.90;;;;;;5055550;28;20037;-61
2023/03/08 11:19:14;;;;;;;15.88;11.45;;;3.80;99.90;;;;;;5055386;28;20128;-60
2023/03/08 11:21:54;;;;;;;15.18;11.68;;;3.80;99.90;;;;;;5056294;28;20400;-63
2023/03/08 11:24:30;;;;;;;16.65;12.23;;;3.90;99.90;;;;;;5056195;28;20025;-62
2023/03/08 11:27:17;;;;;;;18.77;12.80;;;4.10;99.90;;;;;;5056508;28;20037;-63
2023/03/08 11:30:21;;;;;;;19.45;13.30;;;3.50;99.90;;;;;;5055373;28;20048;-63
2023/03/08 11:33:25;;;;;;;18.42;13.65;;;3.70;99.90;;;;;;5058293;28;20029;-61
2023/03/08 11:35:54;;;;;;;15.00;11.50;;;3.50;99.90;;;;;;5058892;28;20044;-62
2023/03/08 11:38:24;;;;;;;21.13;14.25;;;4.30;99.90;;;;;;5059133;28;20293;-61
2023/03/08 11:41:30;;;;;;;21.10;15.23;;;4.30;99.90;;;;;;5059514;28;20044;-61
2023/03/08 11:44:15;;;;;;;20.27;15.57;;;4.20;99.90;;;;;;5059406;28;20021;-60
2023/03/08 11:47:04;;;;;;;19.58;14.70;;;4.20;99.90;;;;;;5059793;28;20060;-60
2023/03/08 11:50:04;;;;;;;19.80;14.63;;;4.10;99.90;;;;;;5058711;28;20123;-61
2023/03/08 11:52:49;;;;;;;22.58;15.63;;;4.00;99.90;;;;;;5058897;28;20043;-60
2023/03/08 11:55:53;;;;;;;20.17;15.20;;;3.70;99.90;;;;;;5058358;28;20364;-61
2023/03/08 11:58:40;;;;;;;25.10;16.20;;;3.70;99.90;;;;;;5059198;28;20024;-61
2023/03/08 12:01:34;;;;;;;21.40;15.38;;;3.90;99.90;;;;;;5058497;28;20125;-61
2023/03/08 12:04:15;;;;;;;21.90;15.73;;;4.10;99.90;;;;;;5059231;28;20029;-61
2023/03/08 12:06:42;;;;;;;21.95;16.30;;;4.10;99.90;;;;;;5059069;28;20037;-59
2023/03/08 12:09:32;;;;;;;20.70;16.10;;;4.00;99.90;;;;;;5058963;28;20304;-60
2023/03/08 12:12:15;;;;;;;24.08;16.38;;;3.80;99.90;;;;;;5058322;28;20075;-61
2023/03/08 12:14:53;;;;;;;22.88;16.75;;;3.70;99.90;;;;;;5059389;28;20029;-61
2023/03/08 12:17:27;;;;;;;24.02;17.13;;;3.70;99.90;;;;;;5058811;28;20021;-61
2023/03/08 12:19:54;;;;;;;25.65;18.23;;;3.90;99.90;;;;;;5042407;28;20032;-61
2023/03/08 12:22:29;;;;;;;26.88;18.77;;;3.80;99.90;;;;;;5058830;28;20032;-61
2023/03/08 12:25:32;;;;;;;26.17;18.52;;;4.00;99.90;;;;;;5058905;28;20036;-61
2023/03/08 12:28:19;;;;;;;26.03;17.97;;;4.20;99.90;;;;;;5057944;28;20403;-61
2023/03/08 12:31:18;;;;;;;23.85;17.63;;;4.20;99.90;;;;;;5057722;28;20552;-61
2023/03/08 12:33:46;;;;;;;26.38;17.33;;;3.70;99.90;;;;;;5058459;28;20401;-62
2023/03/08 12:36:12;;;;;;;27.10;18.75;;;3.90;99.90;;;;;;5058501;28;20108;-62
2023/03/08 12:38:43;;;;;;;25.52;18.38;;;4.30;99.90;;;;;;5058480;28;20033;-62
2023/03/08 12:41:28;;;;;;;25.48;18.17;;;4.50;99.90;;;;;;5058395;28;20021;-61
2023/03/08 12:44:05;;;;;;;23.58;17.40;;;4.50;99.90;;;;;;5058002;28;20484;-61
2023/03/08 12:46:55;;;;;;;24.85;17.30;;;4.60;99.90;;;;;;5058337;28;20348;-61
2023/03/08 12:49:36;;;;;;;26.35;18.52;;;4.50;99.90;;;;;;5058517;28;20029;-62
2023/03/08 12:52:22;;;;;;;27.40;19.17;;;4.60;99.90;;;;;;5058304;28;20315;-61
2023/03/08 12:55:00;;;;;;;27.23;19.02;;;4.60;99.90;;;;;;5058033;28;20061;-62
2023/03/08 12:57:44;;;;;;;25.42;17.77;;;4.60;99.90;;;;;;5058075;28;20063;-62
2023/03/08 13:00:19;;;;;;;27.83;19.45;;;4.30;99.90;;;;;;5058106;28;20311;-62